sensor_id;sensor_type;location;lat;lon;timestamp;pressure;altitude;pressure_sealevel;temperature;humidity
80640;BME280;69992;60.170;24.692;2023-05-10T00:00:33;102246.46;;;-1.44;14.20
80640;BME280;69992;60.170;24.692;2023-05-10T00:02:59;102244.04;;;-1.60;14.22
80640;BME280;69992;60.170;24.692;2023-05-10T00:05:25;102241.22;;;-0.75;14.23
80640;BME280;69992;60.170;24.692;2023-05-10T00:07:50;102240.73;;;-0.87;14.23
80640;BME280;69992;60.170;24.692;2023-05-10T00:10:16;102240.77;;;-1.94;14.22
80640;BME280;69992;60.170;24.692;2023-05-10T00:12:42;102242.50;;;-1.03;14.23
80640;BME280;69992;60.170;24.692;2023-05-10T00:15:09;102245.92;;;-1.10;14.27
80640;BME280;69992;60.170;24.692;2023-05-10T00:17:34;102246.42;;;-1.14;14.23
80640;BME280;69992;60.170;24.692;2023-05-10T00:19:59;102246.26;;;-1.21;14.20
80640;BME280;69992;60.170;24.692;2023-05-10T00:22:25;102246.42;;;-1.34;14.23
80640;BME280;69992;60.170;24.692;2023-05-10T00:24:51;102247.45;;;-1.41;14.24
80640;BME280;69992;60.170;24.692;2023-05-10T00:27:17;102245.39;;;-1.52;14.25
80640;BME280;69992;60.170;24.692;2023-05-10T00:29:43;102247.61;;;-1.62;14.25
80640;BME280;69992;60.170;24.692;2023-05-10T00:32:08;102247.67;;;-1.76;14.27
80640;BME280;69992;60.170;24.692;2023-05-10T00:34:34;102251.41;;;-1.87;14.24
80640;BME280;69992;60.170;24.692;2023-05-10T00:37:00;102250.03;;;-1.96;14.24
80640;BME280;69992;60.170;24.692;2023-05-10T00:39:25;102250.92;;;-1.11;14.24
80640;BME280;69992;60.170;24.692;2023-05-10T00:41:51;102251.46;;;-2.27;14.23
80640;BME280;69992;60.170;24.692;2023-05-10T00:44:17;102251.83;;;-2.41;14.24
80640;BME280;69992;60.170;24.692;2023-05-10T00:46:42;102248.21;;;-0.58;14.28
80640;BME280;69992;60.170;24.692;2023-05-10T00:49:08;102250.73;;;-2.61;14.29
80640;BME280;69992;60.170;24.692;2023-05-10T00:51:34;102248.19;;;-2.68;14.29
80640;BME280;69992;60.170;24.692;2023-05-10T00:54:00;102249.09;;;-1.79;14.27
80640;BME280;69992;60.170;24.692;2023-05-10T00:56:25;102246.31;;;-2.83;14.27
80640;BME280;69992;60.170;24.692;2023-05-10T00:58:51;102247.38;;;-2.85;14.26
80640;BME280;69992;60.170;24.692;2023-05-10T01:01:17;102244.54;;;-1.93;14.26
80640;BME280;69992;60.170;24.692;2023-05-10T01:03:43;102245.39;;;-1.97;14.28
80640;BME280;69992;60.170;24.692;2023-05-10T01:06:09;102244.22;;;-1.02;14.25
80640;BME280;69992;60.170;24.692;2023-05-10T01:08:35;102245.09;;;-1.03;14.25
80640;BME280;69992;60.170;24.692;2023-05-10T01:11:00;102244.88;;;-1.09;14.25
80640;BME280;69992;60.170;24.692;2023-05-10T01:13:36;102243.60;;;-1.13;14.28
80640;BME280;69992;60.170;24.692;2023-05-10T01:15:52;102243.94;;;-2.09;14.25
80640;BME280;69992;60.170;24.692;2023-05-10T01:18:20;102246.95;;;-2.18;14.26
80640;BME280;69992;60.170;24.692;2023-05-10T01:20:48;102246.33;;;-3.22;14.28
80640;BME280;69992;60.170;24.692;2023-05-10T01:23:31;102246.53;;;-2.29;14.25
80640;BME280;69992;60.170;24.692;2023-05-10T01:25:49;102249.85;;;-3.21;14.24
80640;BME280;69992;60.170;24.692;2023-05-10T01:28:13;102250.38;;;-2.23;14.22
80640;BME280;69992;60.170;24.692;2023-05-10T01:30:36;102254.01;;;-1.31;14.21
80640;BME280;69992;60.170;24.692;2023-05-10T01:32:58;102255.43;;;-3.30;14.19
80640;BME280;69992;60.170;24.692;2023-05-10T01:35:26;102255.27;;;-2.48;14.19
80640;BME280;69992;60.170;24.692;2023-05-10T01:37:48;102253.95;;;-1.65;14.19
80640;BME280;69992;60.170;24.692;2023-05-10T01:40:17;102250.75;;;-1.83;14.21
80640;BME280;69992;60.170;24.692;2023-05-10T01:42:41;102249.98;;;-2.91;14.20
80640;BME280;69992;60.170;24.692;2023-05-10T01:45:12;102251.63;;;-2.02;14.24
80640;BME280;69992;60.170;24.692;2023-05-10T01:47:32;102252.48;;;-2.05;14.23
80640;BME280;69992;60.170;24.692;2023-05-10T01:49:55;102252.75;;;-2.14;14.25
80640;BME280;69992;60.170;24.692;2023-05-10T01:52:26;102254.19;;;-2.26;14.27
80640;BME280;69992;60.170;24.692;2023-05-10T01:54:50;102257.27;;;-2.36;14.27
80640;BME280;69992;60.170;24.692;2023-05-10T01:57:11;102258.69;;;-2.43;14.24
80640;BME280;69992;60.170;24.692;2023-05-10T01:59:38;102254.36;;;-2.49;14.24
80640;BME280;69992;60.170;24.692;2023-05-10T02:02:02;102251.47;;;-2.52;14.27
80640;BME280;69992;60.170;24.692;2023-05-10T02:04:28;102251.56;;;-2.50;14.24
80640;BME280;69992;60.170;24.692;2023-05-10T02:06:55;102250.58;;;-2.50;14.24
80640;BME280;69992;60.170;24.692;2023-05-10T02:09:20;102249.73;;;-2.56;14.26
80640;BME280;69992;60.170;24.692;2023-05-10T02:11:45;102250.54;;;-2.61;14.26
80640;BME280;69992;60.170;24.692;2023-05-10T02:14:11;102249.89;;;-2.68;14.26
80640;BME280;69992;60.170;24.692;2023-05-10T02:16:37;102252.21;;;-2.76;14.26
80640;BME280;69992;60.170;24.692;2023-05-10T02:19:02;102252.89;;;-2.86;14.26
80640;BME280;69992;60.170;24.692;2023-05-10T02:21:28;102251.37;;;-3.01;14.27
80640;BME280;69992;60.170;24.692;2023-05-10T02:23:54;102251.47;;;-3.10;14.29
80640;BME280;69992;60.170;24.692;2023-05-10T02:26:18;102252.10;;;-3.15;14.28
80640;BME280;69992;60.170;24.692;2023-05-10T02:28:43;102251.48;;;-3.21;14.30
80640;BME280;69992;60.170;24.692;2023-05-10T02:31:10;102252.73;;;-3.30;14.32
80640;BME280;69992;60.170;24.692;2023-05-10T02:33:35;102257.99;;;-3.35;14.30
80640;BME280;69992;60.170;24.692;2023-05-10T02:36:01;102256.49;;;-3.39;14.30
80640;BME280;69992;60.170;24.692;2023-05-10T02:38:26;102257.91;;;-3.42;14.30
80640;BME280;69992;60.170;24.692;2023-05-10T02:40:51;102262.00;;;-2.47;14.29
80640;BME280;69992;60.170;24.692;2023-05-10T02:43:17;102260.51;;;-2.47;14.31
80640;BME280;69992;60.170;24.692;2023-05-10T02:45:42;102260.26;;;-3.47;14.31
80640;BME280;69992;60.170;24.692;2023-05-10T02:48:07;102261.98;;;-3.50;14.33
80640;BME280;69992;60.170;24.692;2023-05-10T02:50:33;102260.06;;;-3.51;14.32
80640;BME280;69992;60.170;24.692;2023-05-10T02:53:01;102260.20;;;-3.49;14.31
80640;BME280;69992;60.170;24.692;2023-05-10T02:55:26;102257.59;;;-2.45;14.31
80640;BME280;69992;60.170;24.692;2023-05-10T02:57:51;102257.92;;;-3.41;14.30
80640;BME280;69992;60.170;24.692;2023-05-10T03:00:13;102259.99;;;-3.45;14.27
80640;BME280;69992;60.170;24.692;2023-05-10T03:02:39;102260.89;;;-3.47;14.28
80640;BME280;69992;60.170;24.692;2023-05-10T03:05:05;102260.55;;;-2.49;14.30
80640;BME280;69992;60.170;24.692;2023-05-10T03:07:30;102261.37;;;-2.48;14.30
80640;BME280;69992;60.170;24.692;2023-05-10T03:09:55;102261.37;;;-2.49;14.30
80640;BME280;69992;60.170;24.692;2023-05-10T03:12:33;102261.34;;;-4.44;14.30
80640;BME280;69992;60.170;24.692;2023-05-10T03:14:53;102263.27;;;-3.33;14.28
80640;BME280;69992;60.170;24.692;2023-05-10T03:17:16;102265.66;;;-3.18;14.30
80640;BME280;69992;60.170;24.692;2023-05-10T03:19:42;102268.06;;;-2.09;14.26
80640;BME280;69992;60.170;24.692;2023-05-10T03:22:06;102265.97;;;-2.97;14.27
80640;BME280;69992;60.170;24.692;2023-05-10T03:24:30;102265.89;;;-2.88;14.28
80640;BME280;69992;60.170;24.692;2023-05-10T03:26:56;102267.02;;;-2.77;14.26
80640;BME280;69992;60.170;24.692;2023-05-10T03:29:21;102270.74;;;-2.66;14.26
80640;BME280;69992;60.170;24.692;2023-05-10T03:31:46;102269.29;;;-2.58;14.27
80640;BME280;69992;60.170;24.692;2023-05-10T03:34:11;102267.79;;;-2.49;14.28
80640;BME280;69992;60.170;24.692;2023-05-10T03:36:36;102267.52;;;-2.42;14.29
80640;BME280;69992;60.170;24.692;2023-05-10T03:39:02;102269.69;;;-2.36;14.26
80640;BME280;69992;60.170;24.692;2023-05-10T03:41:27;102268.76;;;-3.26;14.28
80640;BME280;69992;60.170;24.692;2023-05-10T03:43:53;102273.78;;;-3.13;14.30
80640;BME280;69992;60.170;24.692;2023-05-10T03:46:19;102273.80;;;-2.03;14.29
80640;BME280;69992;60.170;24.692;2023-05-10T03:48:45;102274.16;;;-1.84;14.29
80640;BME280;69992;60.170;24.692;2023-05-10T03:51:11;102271.75;;;-2.66;14.28
80640;BME280;69992;60.170;24.692;2023-05-10T03:53:37;102274.22;;;-1.48;14.27
80640;BME280;69992;60.170;24.692;2023-05-10T03:56:03;102275.34;;;-1.26;14.31
80640;BME280;69992;60.170;24.692;2023-05-10T03:58:28;102279.05;;;-2.97;14.30
80640;BME280;69992;60.170;24.692;2023-05-10T04:00:54;102282.35;;;-1.75;14.28
80640;BME280;69992;60.170;24.692;2023-05-10T04:03:20;102284.55;;;-2.48;14.28
80640;BME280;69992;60.170;24.692;2023-05-10T04:05:46;102284.30;;;-2.16;14.25
80640;BME280;69992;60.170;24.692;2023-05-10T04:08:11;102284.62;;;-1.86;14.24
80640;BME280;69992;60.170;24.692;2023-05-10T04:10:37;102284.94;;;-1.58;14.23
80640;BME280;69992;60.170;24.692;2023-05-10T04:13:03;102285.76;;;-1.30;14.23
80640;BME280;69992;60.170;24.692;2023-05-10T04:15:29;102287.71;;;-1.07;14.21
80640;BME280;69992;60.170;24.692;2023-05-10T04:17:55;102286.79;;;-0.82;14.20
80640;BME280;69992;60.170;24.692;2023-05-10T04:20:20;102284.12;;;-1.58;14.22
80640;BME280;69992;60.170;24.692;2023-05-10T04:22:46;102285.63;;;-1.27;14.22
80640;BME280;69992;60.170;24.692;2023-05-10T04:25:12;102289.04;;;-0.99;14.20
80640;BME280;69992;60.170;24.692;2023-05-10T04:27:38;102288.65;;;0.29;14.19
80640;BME280;69992;60.170;24.692;2023-05-10T04:30:05;102287.84;;;0.61;14.18
80640;BME280;69992;60.170;24.692;2023-05-10T04:32:29;102288.51;;;-0.07;14.17
80640;BME280;69992;60.170;24.692;2023-05-10T04:34:55;102288.19;;;-0.76;14.16
80640;BME280;69992;60.170;24.692;2023-05-10T04:37:21;102287.86;;;0.45;14.16
80640;BME280;69992;60.170;24.692;2023-05-10T04:39:47;102289.03;;;0.72;14.16
80640;BME280;69992;60.170;24.692;2023-05-10T04:42:13;102287.60;;;0.00;14.18
80640;BME280;69992;60.170;24.692;2023-05-10T04:44:38;102287.39;;;0.26;14.18
80640;BME280;69992;60.170;24.692;2023-05-10T04:47:04;102286.87;;;0.55;14.17
80640;BME280;69992;60.170;24.692;2023-05-10T04:49:30;102288.21;;;-0.17;14.22
80640;BME280;69992;60.170;24.692;2023-05-10T04:51:56;102281.60;;;1.05;14.24
80640;BME280;69992;60.170;24.692;2023-05-10T04:54:21;102285.22;;;1.43;14.21
80640;BME280;69992;60.170;24.692;2023-05-10T04:56:47;102284.64;;;0.85;14.19
80640;BME280;69992;60.170;24.692;2023-05-10T04:59:13;102286.41;;;2.18;14.18
80640;BME280;69992;60.170;24.692;2023-05-10T05:01:39;102288.55;;;0.62;14.18
80640;BME280;69992;60.170;24.692;2023-05-10T05:04:04;102290.43;;;1.03;14.16
80640;BME280;69992;60.170;24.692;2023-05-10T05:06:30;102285.73;;;1.43;14.15
80640;BME280;69992;60.170;24.692;2023-05-10T05:08:55;102284.05;;;1.78;14.15
80640;BME280;69992;60.170;24.692;2023-05-10T05:11:21;102287.84;;;1.20;14.25
80640;BME280;69992;60.170;24.692;2023-05-10T05:13:47;102287.57;;;2.62;14.20
80640;BME280;69992;60.170;24.692;2023-05-10T05:16:13;102291.87;;;1.17;14.16
80640;BME280;69992;60.170;24.692;2023-05-10T05:18:39;102289.41;;;1.66;14.13
80640;BME280;69992;60.170;24.692;2023-05-10T05:21:14;102290.87;;;2.12;14.12
80640;BME280;69992;60.170;24.692;2023-05-10T05:23:30;102288.03;;;2.58;14.09
80640;BME280;69992;60.170;24.692;2023-05-10T05:25:55;102288.39;;;3.00;14.08
80640;BME280;69992;60.170;24.692;2023-05-10T05:28:21;102284.92;;;3.35;14.09
80640;BME280;69992;60.170;24.692;2023-05-10T05:30:47;102281.80;;;2.72;14.11
80640;BME280;69992;60.170;24.692;2023-05-10T05:33:13;102281.49;;;3.06;14.11
80640;BME280;69992;60.170;24.692;2023-05-10T05:35:38;102278.56;;;3.45;14.13
80640;BME280;69992;60.170;24.692;2023-05-10T05:38:04;102275.50;;;2.90;14.14
80640;BME280;69992;60.170;24.692;2023-05-10T05:40:29;102274.31;;;3.29;14.13
80640;BME280;69992;60.170;24.692;2023-05-10T05:42:55;102277.50;;;4.70;14.14
80640;BME280;69992;60.170;24.692;2023-05-10T05:45:20;102277.98;;;4.10;14.14
80640;BME280;69992;60.170;24.692;2023-05-10T05:47:46;102277.81;;;4.51;14.12
80640;BME280;69992;60.170;24.692;2023-05-10T05:50:12;102276.77;;;4.92;14.10
80640;BME280;69992;60.170;24.692;2023-05-10T05:52:37;102273.08;;;5.28;14.13
80640;BME280;69992;60.170;24.692;2023-05-10T05:55:03;102273.06;;;4.66;14.15
80640;BME280;69992;60.170;24.692;2023-05-10T05:57:28;102273.73;;;4.98;14.20
80640;BME280;69992;60.170;24.692;2023-05-10T05:59:54;102274.33;;;4.50;14.14
80640;BME280;69992;60.170;24.692;2023-05-10T06:02:20;102273.06;;;4.89;14.27
80640;BME280;69992;60.170;24.692;2023-05-10T06:04:45;102273.66;;;5.28;14.18
80640;BME280;69992;60.170;24.692;2023-05-10T06:07:11;102268.16;;;5.65;14.15
80640;BME280;69992;60.170;24.692;2023-05-10T06:09:36;102269.70;;;6.01;14.16
80640;BME280;69992;60.170;24.692;2023-05-10T06:12:02;102268.17;;;6.44;14.16
80640;BME280;69992;60.170;24.692;2023-05-10T06:14:28;102266.60;;;5.83;14.15
80640;BME280;69992;60.170;24.692;2023-05-10T06:16:53;102264.65;;;7.13;14.17
80640;BME280;69992;60.170;24.692;2023-05-10T06:19:19;102263.95;;;7.51;14.16
80640;BME280;69992;60.170;24.692;2023-05-10T06:21:44;102263.43;;;5.88;14.14
80640;BME280;69992;60.170;24.692;2023-05-10T06:24:10;102261.23;;;6.09;14.23
80640;BME280;69992;60.170;24.692;2023-05-10T06:26:36;102262.53;;;6.34;14.20
80640;BME280;69992;60.170;24.692;2023-05-10T06:29:01;102261.99;;;6.59;14.22
80640;BME280;69992;60.170;24.692;2023-05-10T06:31:27;102264.24;;;6.85;14.21
80640;BME280;69992;60.170;24.692;2023-05-10T06:33:53;102263.66;;;6.15;14.23
80640;BME280;69992;60.170;24.692;2023-05-10T06:36:18;102263.04;;;6.50;14.22
80640;BME280;69992;60.170;24.692;2023-05-10T06:38:43;102261.11;;;7.82;14.24
80640;BME280;69992;60.170;24.692;2023-05-10T06:41:09;102260.66;;;7.11;14.23
80640;BME280;69992;60.170;24.692;2023-05-10T06:43:35;102259.92;;;7.38;14.28
80640;BME280;69992;60.170;24.692;2023-05-10T06:46:00;102264.11;;;6.64;14.25
80640;BME280;69992;60.170;24.692;2023-05-10T06:48:26;102262.75;;;6.88;14.27
80640;BME280;69992;60.170;24.692;2023-05-10T06:50:52;102258.75;;;7.16;14.27
80640;BME280;69992;60.170;24.692;2023-05-10T06:53:17;102255.23;;;7.49;14.31
80640;BME280;69992;60.170;24.692;2023-05-10T06:55:43;102254.90;;;7.81;14.26
80640;BME280;69992;60.170;24.692;2023-05-10T06:58:09;102253.57;;;8.17;14.24
80640;BME280;69992;60.170;24.692;2023-05-10T07:00:34;102254.33;;;8.53;14.25
80640;BME280;69992;60.170;24.692;2023-05-10T07:03:00;102251.64;;;8.86;14.29
80640;BME280;69992;60.170;24.692;2023-05-10T07:05:25;102250.12;;;9.18;14.28
80640;BME280;69992;60.170;24.692;2023-05-10T07:07:51;102254.71;;;7.59;14.29
80640;BME280;69992;60.170;24.692;2023-05-10T07:10:17;102252.82;;;8.74;14.40
80640;BME280;69992;60.170;24.692;2023-05-10T07:12:42;102255.43;;;7.94;14.35
80640;BME280;69992;60.170;24.692;2023-05-10T07:15:09;102253.78;;;8.25;14.33
80640;BME280;69992;60.170;24.692;2023-05-10T07:17:34;102255.22;;;8.64;14.32
80640;BME280;69992;60.170;24.692;2023-05-10T07:19:59;102256.85;;;9.92;14.32
80640;BME280;69992;60.170;24.692;2023-05-10T07:22:25;102255.24;;;9.19;14.33
80640;BME280;69992;60.170;24.692;2023-05-10T07:24:50;102254.19;;;8.48;14.39
80640;BME280;69992;60.170;24.692;2023-05-10T07:27:16;102261.68;;;9.79;14.39
80640;BME280;69992;60.170;24.692;2023-05-10T07:29:42;102263.18;;;10.04;14.43
80640;BME280;69992;60.170;24.692;2023-05-10T07:32:07;102265.54;;;9.33;14.44
80640;BME280;69992;60.170;24.692;2023-05-10T07:34:33;102264.36;;;10.63;14.40
80640;BME280;69992;60.170;24.692;2023-05-10T07:36:59;102258.05;;;9.04;14.41
80640;BME280;69992;60.170;24.692;2023-05-10T07:39:25;102256.99;;;9.48;14.37
80640;BME280;69992;60.170;24.692;2023-05-10T07:41:50;102255.80;;;10.82;14.37
80640;BME280;69992;60.170;24.692;2023-05-10T07:44:15;102261.06;;;10.14;14.38
80640;BME280;69992;60.170;24.692;2023-05-10T07:46:41;102260.72;;;10.45;14.39
80640;BME280;69992;60.170;24.692;2023-05-10T07:49:06;102264.74;;;10.62;14.43
80640;BME280;69992;60.170;24.692;2023-05-10T07:51:32;102263.12;;;10.91;14.42
80640;BME280;69992;60.170;24.692;2023-05-10T07:53:58;102263.09;;;11.25;14.42
80640;BME280;69992;60.170;24.692;2023-05-10T07:56:25;102264.14;;;11.56;14.44
80640;BME280;69992;60.170;24.692;2023-05-10T07:58:49;102267.41;;;10.92;14.45
80640;BME280;69992;60.170;24.692;2023-05-10T08:01:15;102269.27;;;11.31;14.43
80640;BME280;69992;60.170;24.692;2023-05-10T08:03:40;102273.34;;;11.62;14.44
80640;BME280;69992;60.170;24.692;2023-05-10T08:06:06;102278.57;;;10.92;14.50
80640;BME280;69992;60.170;24.692;2023-05-10T08:08:31;102274.47;;;11.21;14.47
80640;BME280;69992;60.170;24.692;2023-05-10T08:10:57;102272.13;;;11.37;14.45
80640;BME280;69992;60.170;24.692;2023-05-10T08:13:23;102278.36;;;11.59;14.49
80640;BME280;69992;60.170;24.692;2023-05-10T08:15:48;102282.10;;;11.89;14.44
80640;BME280;69992;60.170;24.692;2023-05-10T08:18:14;102279.33;;;11.21;14.43
80640;BME280;69992;60.170;24.692;2023-05-10T08:20:39;102278.31;;;11.55;14.47
80640;BME280;69992;60.170;24.692;2023-05-10T08:23:05;102282.34;;;11.95;14.47
80640;BME280;69992;60.170;24.692;2023-05-10T08:25:31;102280.34;;;11.31;14.48
80640;BME280;69992;60.170;24.692;2023-05-10T08:27:56;102288.89;;;11.62;14.45
80640;BME280;69992;60.170;24.692;2023-05-10T08:30:21;102289.57;;;12.01;14.44
80640;BME280;69992;60.170;24.692;2023-05-10T08:32:47;102287.06;;;12.21;14.46
80640;BME280;69992;60.170;24.692;2023-05-10T08:35:13;102287.05;;;12.42;14.49
80640;BME280;69992;60.170;24.692;2023-05-10T08:37:38;102283.49;;;12.71;14.47
80640;BME280;69992;60.170;24.692;2023-05-10T08:40:04;102289.54;;;12.19;14.45
80640;BME280;69992;60.170;24.692;2023-05-10T08:42:30;102284.57;;;11.61;14.42
80640;BME280;69992;60.170;24.692;2023-05-10T08:44:56;102288.97;;;13.95;14.37
80640;BME280;69992;60.170;24.692;2023-05-10T08:47:20;102291.07;;;14.05;14.38
80640;BME280;69992;60.170;24.692;2023-05-10T08:49:47;102289.71;;;12.21;14.40
80640;BME280;69992;60.170;24.692;2023-05-10T08:52:13;102289.07;;;14.27;14.41
80640;BME280;69992;60.170;24.692;2023-05-10T08:54:37;102288.84;;;12.51;14.44
80640;BME280;69992;60.170;24.692;2023-05-10T08:57:02;102289.83;;;12.68;14.46
80640;BME280;69992;60.170;24.692;2023-05-10T08:59:28;102287.49;;;13.79;14.50
80640;BME280;69992;60.170;24.692;2023-05-10T09:01:54;102287.46;;;12.99;14.52
80640;BME280;69992;60.170;24.692;2023-05-10T09:04:19;102286.94;;;13.42;14.49
80640;BME280;69992;60.170;24.692;2023-05-10T09:06:44;102285.56;;;13.74;14.49
80640;BME280;69992;60.170;24.692;2023-05-10T09:09:10;102287.15;;;14.19;14.50
80640;BME280;69992;60.170;24.692;2023-05-10T09:11:35;102284.67;;;15.69;14.46
80640;BME280;69992;60.170;24.692;2023-05-10T09:14:01;102287.22;;;14.79;14.44
80640;BME280;69992;60.170;24.692;2023-05-10T09:16:26;102291.84;;;14.91;14.47
80640;BME280;69992;60.170;24.692;2023-05-10T09:18:52;102292.69;;;14.38;14.49
80640;BME280;69992;60.170;24.692;2023-05-10T09:21:19;102295.13;;;15.73;14.46
80640;BME280;69992;60.170;24.692;2023-05-10T09:23:43;102296.65;;;14.98;14.48
80640;BME280;69992;60.170;24.692;2023-05-10T09:26:08;102291.29;;;14.36;14.46
80640;BME280;69992;60.170;24.692;2023-05-10T09:28:35;102290.87;;;16.52;14.26
80640;BME280;69992;60.170;24.692;2023-05-10T09:30:59;102293.02;;;17.65;14.04
80640;BME280;69992;60.170;24.692;2023-05-10T09:33:25;102293.78;;;17.66;13.84
80640;BME280;69992;60.170;24.692;2023-05-10T09:35:52;102293.37;;;19.80;13.66
80640;BME280;69992;60.170;24.692;2023-05-10T09:38:16;102300.69;;;19.54;13.45
80640;BME280;69992;60.170;24.692;2023-05-10T09:40:50;102298.08;;;19.78;13.30
80640;BME280;69992;60.170;24.692;2023-05-10T09:43:07;102297.59;;;20.83;13.23
80640;BME280;69992;60.170;24.692;2023-05-10T09:45:34;102297.18;;;20.69;13.21
80640;BME280;69992;60.170;24.692;2023-05-10T09:47:58;102291.89;;;21.37;13.20
80640;BME280;69992;60.170;24.692;2023-05-10T09:50:24;102289.70;;;20.24;13.12
80640;BME280;69992;60.170;24.692;2023-05-10T09:52:50;102285.80;;;21.30;13.12
80640;BME280;69992;60.170;24.692;2023-05-10T09:55:14;102291.42;;;21.51;13.00
80640;BME280;69992;60.170;24.692;2023-05-10T09:57:39;102282.02;;;21.38;12.98
80640;BME280;69992;60.170;24.692;2023-05-10T10:00:06;102291.42;;;21.98;12.97
80640;BME280;69992;60.170;24.692;2023-05-10T10:02:31;102290.48;;;22.43;12.99
80640;BME280;69992;60.170;24.692;2023-05-10T10:04:55;102278.97;;;22.77;13.00
80640;BME280;69992;60.170;24.692;2023-05-10T10:07:23;102278.51;;;23.38;13.00
80640;BME280;69992;60.170;24.692;2023-05-10T10:09:46;102282.36;;;23.39;13.00
80640;BME280;69992;60.170;24.692;2023-05-10T10:12:12;102275.37;;;22.99;12.90
80640;BME280;69992;60.170;24.692;2023-05-10T10:14:37;102277.37;;;23.55;12.94
80640;BME280;69992;60.170;24.692;2023-05-10T10:17:03;102273.05;;;23.92;12.91
80640;BME280;69992;60.170;24.692;2023-05-10T10:19:28;102274.06;;;23.99;12.88
80640;BME280;69992;60.170;24.692;2023-05-10T10:21:53;102273.89;;;23.99;12.89
80640;BME280;69992;60.170;24.692;2023-05-10T10:24:18;102274.62;;;23.75;12.99
80640;BME280;69992;60.170;24.692;2023-05-10T10:26:45;102270.57;;;23.00;13.00
80640;BME280;69992;60.170;24.692;2023-05-10T10:29:20;102264.00;;;24.63;13.01
80640;BME280;69992;60.170;24.692;2023-05-10T10:31:40;102267.06;;;24.63;12.91
80640;BME280;69992;60.170;24.692;2023-05-10T10:34:03;102265.18;;;26.46;12.80
80640;BME280;69992;60.170;24.692;2023-05-10T10:36:26;102258.02;;;24.94;12.83
80640;BME280;69992;60.170;24.692;2023-05-10T10:38:58;102259.36;;;25.48;12.80
80640;BME280;69992;60.170;24.692;2023-05-10T10:43:42;102266.37;;;25.40;12.71
80640;BME280;69992;60.170;24.692;2023-05-10T10:46:11;102272.95;;;23.50;13.03
80640;BME280;69992;60.170;24.692;2023-05-10T10:48:32;102260.48;;;21.75;13.30
80640;BME280;69992;60.170;24.692;2023-05-10T10:50:58;102253.50;;;22.10;13.66
80640;BME280;69992;60.170;24.692;2023-05-10T10:53:26;102248.30;;;21.83;13.89
80640;BME280;69992;60.170;24.692;2023-05-10T10:55:49;102242.80;;;20.14;14.13
80640;BME280;69992;60.170;24.692;2023-05-10T11:00:40;102245.60;;;17.38;14.42
80640;BME280;69992;60.170;24.692;2023-05-10T11:03:06;102240.85;;;18.37;14.48
80640;BME280;69992;60.170;24.692;2023-05-10T11:05:39;102241.91;;;18.66;14.54
80640;BME280;69992;60.170;24.692;2023-05-10T11:07:57;102242.56;;;16.92;14.61
80640;BME280;69992;60.170;24.692;2023-05-10T11:10:22;102239.33;;;17.15;14.62
80640;BME280;69992;60.170;24.692;2023-05-10T11:12:53;102243.57;;;16.34;14.67
80640;BME280;69992;60.170;24.692;2023-05-10T11:15:13;102243.05;;;16.94;14.70
80640;BME280;69992;60.170;24.692;2023-05-10T11:17:38;102240.45;;;16.59;14.67
80640;BME280;69992;60.170;24.692;2023-05-10T11:20:07;102238.64;;;16.47;14.71
80640;BME280;69992;60.170;24.692;2023-05-10T11:22:29;102243.49;;;16.43;14.69
80640;BME280;69992;60.170;24.692;2023-05-10T11:24:57;102239.24;;;16.36;14.67
80640;BME280;69992;60.170;24.692;2023-05-10T11:27:20;102238.87;;;16.36;14.64
80640;BME280;69992;60.170;24.692;2023-05-10T11:29:45;102236.08;;;18.45;14.65
80640;BME280;69992;60.170;24.692;2023-05-10T11:32:11;102238.14;;;16.77;14.63
80640;BME280;69992;60.170;24.692;2023-05-10T11:34:36;102234.97;;;17.16;14.60
80640;BME280;69992;60.170;24.692;2023-05-10T11:37:02;102234.28;;;17.59;14.59
80640;BME280;69992;60.170;24.692;2023-05-10T11:39:28;102235.01;;;18.07;14.55
80640;BME280;69992;60.170;24.692;2023-05-10T11:41:52;102238.71;;;18.51;14.50
80640;BME280;69992;60.170;24.692;2023-05-10T11:44:18;102235.59;;;17.90;14.46
80640;BME280;69992;60.170;24.692;2023-05-10T11:46:43;102233.85;;;18.42;14.44
80640;BME280;69992;60.170;24.692;2023-05-10T11:49:09;102234.56;;;20.01;14.42
80640;BME280;69992;60.170;24.692;2023-05-10T11:51:35;102236.58;;;17.59;14.34
80640;BME280;69992;60.170;24.692;2023-05-10T11:54:00;102238.83;;;18.72;14.29
80640;BME280;69992;60.170;24.692;2023-05-10T11:56:25;102230.36;;;19.08;14.28
80640;BME280;69992;60.170;24.692;2023-05-10T11:58:53;102231.92;;;19.31;14.20
80640;BME280;69992;60.170;24.692;2023-05-10T12:01:16;102232.36;;;19.88;14.21
80640;BME280;69992;60.170;24.692;2023-05-10T12:03:41;102229.62;;;19.35;14.19
80640;BME280;69992;60.170;24.692;2023-05-10T12:06:07;102226.94;;;20.70;14.14
80640;BME280;69992;60.170;24.692;2023-05-10T12:08:32;102224.02;;;19.75;13.98
80640;BME280;69992;60.170;24.692;2023-05-10T12:11:04;102217.66;;;20.96;13.93
80640;BME280;69992;60.170;24.692;2023-05-10T12:13:23;102215.65;;;21.75;13.85
80640;BME280;69992;60.170;24.692;2023-05-10T12:15:49;102217.79;;;21.23;13.81
80640;BME280;69992;60.170;24.692;2023-05-10T12:18:14;102220.63;;;22.29;13.85
80640;BME280;69992;60.170;24.692;2023-05-10T12:20:40;102214.81;;;21.55;13.86
80640;BME280;69992;60.170;24.692;2023-05-10T12:23:05;102219.02;;;21.29;13.79
80640;BME280;69992;60.170;24.692;2023-05-10T12:25:32;102217.56;;;21.86;13.72
80640;BME280;69992;60.170;24.692;2023-05-10T12:27:57;102216.77;;;22.50;13.54
80640;BME280;69992;60.170;24.692;2023-05-10T12:30:22;102218.27;;;21.80;13.65
80640;BME280;69992;60.170;24.692;2023-05-10T12:32:47;102213.84;;;21.93;13.64
80640;BME280;69992;60.170;24.692;2023-05-10T12:35:12;102222.04;;;23.11;13.54
80640;BME280;69992;60.170;24.692;2023-05-10T12:37:37;102217.03;;;24.39;13.32